sensor_id;sensor_type;location;lat;lon;timestamp;pressure;altitude;pressure_sealevel;temperature;humidity
65190;BME280;51777;53.570;9.984;2023-07-29T00:00:32;100447.56;;;18.71;100.00
65190;BME280;51777;53.570;9.984;2023-07-29T00:02:57;100445.78;;;18.65;100.00
65190;BME280;51777;53.570;9.984;2023-07-29T00:05:23;100441.72;;;18.63;100.00
65190;BME280;51777;53.570;9.984;2023-07-29T00:07:48;100436.06;;;18.59;100.00
65190;BME280;51777;53.570;9.984;2023-07-29T00:10:14;100437.28;;;18.57;100.00
65190;BME280;51777;53.570;9.984;2023-07-29T00:12:39;100437.72;;;18.54;100.00
65190;BME280;51777;53.570;9.984;2023-07-29T00:15:05;100438.31;;;18.56;100.00
65190;BME280;51777;53.570;9.984;2023-07-29T00:17:30;100436.50;;;18.56;100.00
65190;BME280;51777;53.570;9.984;2023-07-29T00:19:56;100439.91;;;18.57;100.00
65190;BME280;51777;53.570;9.984;2023-07-29T00:22:21;100434.88;;;18.55;100.00
65190;BME280;51777;53.570;9.984;2023-07-29T00:24:54;100427.88;;;18.49;100.00
65190;BME280;51777;53.570;9.984;2023-07-29T00:27:21;100429.28;;;18.38;100.00
65190;BME280;51777;53.570;9.984;2023-07-29T00:29:46;100428.28;;;18.33;100.00
65190;BME280;51777;53.570;9.984;2023-07-29T00:32:12;100426.47;;;18.27;100.00
65190;BME280;51777;53.570;9.984;2023-07-29T00:34:37;100424.47;;;18.29;100.00
65190;BME280;51777;53.570;9.984;2023-07-29T00:37:03;100417.41;;;18.29;100.00
65190;BME280;51777;53.570;9.984;2023-07-29T00:39:28;100417.81;;;18.26;100.00
65190;BME280;51777;53.570;9.984;2023-07-29T00:41:53;100407.56;;;18.25;100.00
65190;BME280;51777;53.570;9.984;2023-07-29T00:44:19;100403.53;;;18.22;100.00
65190;BME280;51777;53.570;9.984;2023-07-29T00:46:45;100411.19;;;18.24;100.00
65190;BME280;51777;53.570;9.984;2023-07-29T00:49:16;100399.28;;;18.21;100.00
65190;BME280;51777;53.570;9.984;2023-07-29T00:51:42;100403.72;;;18.20;100.00
65190;BME280;51777;53.570;9.984;2023-07-29T00:54:07;100393.84;;;18.23;100.00
65190;BME280;51777;53.570;9.984;2023-07-29T00:56:33;100393.25;;;18.27;100.00
65190;BME280;51777;53.570;9.984;2023-07-29T00:58:59;100392.22;;;18.35;100.00
65190;BME280;51777;53.570;9.984;2023-07-29T01:01:30;100389.00;;;18.39;100.00
65190;BME280;51777;53.570;9.984;2023-07-29T01:03:55;100384.16;;;18.43;100.00
65190;BME280;51777;53.570;9.984;2023-07-29T01:09:09;100381.31;;;18.51;100.00
65190;BME280;51777;53.570;9.984;2023-07-29T01:14:35;100371.22;;;18.61;100.00
65190;BME280;51777;53.570;9.984;2023-07-29T01:17:08;100365.38;;;18.59;100.00
65190;BME280;51777;53.570;9.984;2023-07-29T01:20:08;100366.78;;;18.62;100.00
65190;BME280;51777;53.570;9.984;2023-07-29T01:22:29;100365.19;;;18.67;100.00
65190;BME280;51777;53.570;9.984;2023-07-29T01:24:57;100365.56;;;18.71;100.00
65190;BME280;51777;53.570;9.984;2023-07-29T01:27:22;100367.78;;;18.74;100.00
65190;BME280;51777;53.570;9.984;2023-07-29T01:29:47;100368.16;;;18.77;100.00
65190;BME280;51777;53.570;9.984;2023-07-29T01:32:28;100370.78;;;18.77;100.00
65190;BME280;51777;53.570;9.984;2023-07-29T01:35:13;100374.41;;;18.76;100.00
65190;BME280;51777;53.570;9.984;2023-07-29T01:37:41;100374.00;;;18.80;100.00
65190;BME280;51777;53.570;9.984;2023-07-29T01:40:08;100381.44;;;18.83;100.00
65190;BME280;51777;53.570;9.984;2023-07-29T01:42:34;100387.69;;;18.82;100.00
65190;BME280;51777;53.570;9.984;2023-07-29T01:45:00;100385.66;;;18.84;100.00
65190;BME280;51777;53.570;9.984;2023-07-29T01:47:25;100390.50;;;18.87;100.00
65190;BME280;51777;53.570;9.984;2023-07-29T01:49:51;100396.13;;;18.90;100.00
65190;BME280;51777;53.570;9.984;2023-07-29T01:52:16;100414.28;;;18.85;100.00
65190;BME280;51777;53.570;9.984;2023-07-29T01:54:42;100379.28;;;18.73;100.00
65190;BME280;51777;53.570;9.984;2023-07-29T01:57:07;100379.50;;;18.65;100.00
65190;BME280;51777;53.570;9.984;2023-07-29T01:59:33;100374.22;;;18.58;100.00
65190;BME280;51777;53.570;9.984;2023-07-29T02:01:58;100377.69;;;18.52;100.00
65190;BME280;51777;53.570;9.984;2023-07-29T02:04:23;100366.03;;;18.41;100.00
65190;BME280;51777;53.570;9.984;2023-07-29T02:06:49;100364.84;;;18.37;100.00
65190;BME280;51777;53.570;9.984;2023-07-29T02:09:14;100375.72;;;18.34;100.00
65190;BME280;51777;53.570;9.984;2023-07-29T02:11:39;100366.47;;;18.32;100.00
65190;BME280;51777;53.570;9.984;2023-07-29T02:14:05;100363.25;;;18.30;100.00
65190;BME280;51777;53.570;9.984;2023-07-29T02:16:30;100359.25;;;18.27;100.00
65190;BME280;51777;53.570;9.984;2023-07-29T02:18:57;100351.19;;;18.29;100.00
65190;BME280;51777;53.570;9.984;2023-07-29T02:21:23;100350.97;;;18.30;100.00
65190;BME280;51777;53.570;9.984;2023-07-29T02:23:48;100351.78;;;18.31;100.00
65190;BME280;51777;53.570;9.984;2023-07-29T02:26:14;100348.34;;;18.30;100.00
65190;BME280;51777;53.570;9.984;2023-07-29T02:28:39;100346.16;;;18.27;100.00
65190;BME280;51777;53.570;9.984;2023-07-29T02:31:14;100345.34;;;18.27;100.00
65190;BME280;51777;53.570;9.984;2023-07-29T02:33:41;100343.75;;;18.26;100.00
65190;BME280;51777;53.570;9.984;2023-07-29T02:36:06;100350.00;;;18.25;100.00
65190;BME280;51777;53.570;9.984;2023-07-29T02:38:31;100346.94;;;18.21;100.00
65190;BME280;51777;53.570;9.984;2023-07-29T02:40:57;100349.56;;;18.21;100.00
65190;BME280;51777;53.570;9.984;2023-07-29T02:43:22;100348.78;;;18.20;100.00
65190;BME280;51777;53.570;9.984;2023-07-29T02:45:48;100339.53;;;18.18;100.00
65190;BME280;51777;53.570;9.984;2023-07-29T02:48:13;100341.53;;;18.16;100.00
65190;BME280;51777;53.570;9.984;2023-07-29T02:50:38;100337.31;;;18.15;100.00
65190;BME280;51777;53.570;9.984;2023-07-29T02:53:04;100340.94;;;18.14;100.00
65190;BME280;51777;53.570;9.984;2023-07-29T02:55:29;100327.88;;;18.14;100.00
65190;BME280;51777;53.570;9.984;2023-07-29T02:57:55;100335.50;;;18.15;100.00
65190;BME280;51777;53.570;9.984;2023-07-29T03:00:20;100333.91;;;18.14;100.00
65190;BME280;51777;53.570;9.984;2023-07-29T03:02:45;100332.09;;;18.15;100.00
65190;BME280;51777;53.570;9.984;2023-07-29T03:05:11;100337.91;;;18.17;100.00
65190;BME280;51777;53.570;9.984;2023-07-29T03:07:36;100333.47;;;18.17;100.00
65190;BME280;51777;53.570;9.984;2023-07-29T03:10:01;100332.88;;;18.15;100.00
65190;BME280;51777;53.570;9.984;2023-07-29T03:12:27;100329.69;;;18.13;100.00
65190;BME280;51777;53.570;9.984;2023-07-29T03:14:52;100333.31;;;18.12;100.00
65190;BME280;51777;53.570;9.984;2023-07-29T03:17:18;100331.69;;;18.11;100.00
65190;BME280;51777;53.570;9.984;2023-07-29T03:19:43;100330.69;;;18.12;100.00
65190;BME280;51777;53.570;9.984;2023-07-29T03:22:09;100337.75;;;18.12;100.00
65190;BME280;51777;53.570;9.984;2023-07-29T03:24:34;100327.28;;;18.12;100.00
65190;BME280;51777;53.570;9.984;2023-07-29T03:26:59;100322.41;;;18.09;100.00
65190;BME280;51777;53.570;9.984;2023-07-29T03:29:25;100329.69;;;18.07;100.00
65190;BME280;51777;53.570;9.984;2023-07-29T03:31:50;100327.06;;;18.07;100.00
65190;BME280;51777;53.570;9.984;2023-07-29T03:34:15;100339.13;;;18.08;100.00
65190;BME280;51777;53.570;9.984;2023-07-29T03:36:41;100345.16;;;18.08;100.00
65190;BME280;51777;53.570;9.984;2023-07-29T03:39:06;100342.75;;;18.07;100.00
65190;BME280;51777;53.570;9.984;2023-07-29T03:41:33;100342.97;;;18.05;100.00
65190;BME280;51777;53.570;9.984;2023-07-29T03:43:58;100337.13;;;18.03;100.00
65190;BME280;51777;53.570;9.984;2023-07-29T03:46:25;100343.97;;;18.04;100.00
65190;BME280;51777;53.570;9.984;2023-07-29T03:48:50;100345.59;;;18.05;100.00
65190;BME280;51777;53.570;9.984;2023-07-29T03:51:16;100341.53;;;18.09;100.00
65190;BME280;51777;53.570;9.984;2023-07-29T03:53:41;100340.75;;;18.09;100.00
65190;BME280;51777;53.570;9.984;2023-07-29T03:56:07;100334.91;;;18.13;100.00
65190;BME280;51777;53.570;9.984;2023-07-29T03:58:32;100334.91;;;18.13;100.00
65190;BME280;51777;53.570;9.984;2023-07-29T04:00:58;100339.94;;;18.15;100.00
65190;BME280;51777;53.570;9.984;2023-07-29T04:03:24;100333.47;;;18.17;100.00
65190;BME280;51777;53.570;9.984;2023-07-29T04:05:49;100332.25;;;18.20;100.00
65190;BME280;51777;53.570;9.984;2023-07-29T04:08:15;100334.66;;;18.22;100.00
65190;BME280;51777;53.570;9.984;2023-07-29T04:10:40;100322.22;;;18.24;100.00
65190;BME280;51777;53.570;9.984;2023-07-29T04:13:05;100329.66;;;18.27;100.00
65190;BME280;51777;53.570;9.984;2023-07-29T04:15:31;100329.81;;;18.32;100.00
65190;BME280;51777;53.570;9.984;2023-07-29T04:17:56;100333.84;;;18.34;100.00
65190;BME280;51777;53.570;9.984;2023-07-29T04:20:22;100333.22;;;18.39;100.00
65190;BME280;51777;53.570;9.984;2023-07-29T04:22:47;100338.69;;;18.37;100.00
65190;BME280;51777;53.570;9.984;2023-07-29T04:25:13;100339.28;;;18.33;100.00
65190;BME280;51777;53.570;9.984;2023-07-29T04:27:38;100339.28;;;18.33;100.00
65190;BME280;51777;53.570;9.984;2023-07-29T04:30:04;100330.81;;;18.37;100.00
65190;BME280;51777;53.570;9.984;2023-07-29T04:32:30;100335.44;;;18.42;100.00
65190;BME280;51777;53.570;9.984;2023-07-29T04:34:55;100332.59;;;18.43;100.00
65190;BME280;51777;53.570;9.984;2023-07-29T04:37:21;100334.41;;;18.49;100.00
65190;BME280;51777;53.570;9.984;2023-07-29T04:39:46;100335.81;;;18.52;100.00
65190;BME280;51777;53.570;9.984;2023-07-29T04:42:12;100337.41;;;18.53;100.00
65190;BME280;51777;53.570;9.984;2023-07-29T04:44:37;100333.03;;;18.40;100.00
65190;BME280;51777;53.570;9.984;2023-07-29T04:47:03;100331.84;;;18.36;100.00
65190;BME280;51777;53.570;9.984;2023-07-29T04:49:28;100324.38;;;18.40;100.00
65190;BME280;51777;53.570;9.984;2023-07-29T04:51:53;100327.41;;;18.37;100.00
65190;BME280;51777;53.570;9.984;2023-07-29T04:54:19;100322.97;;;18.37;100.00
65190;BME280;51777;53.570;9.984;2023-07-29T04:56:46;100319.34;;;18.32;100.00
65190;BME280;51777;53.570;9.984;2023-07-29T04:59:11;100321.53;;;18.35;100.00
65190;BME280;51777;53.570;9.984;2023-07-29T05:01:38;100326.97;;;18.40;100.00
65190;BME280;51777;53.570;9.984;2023-07-29T05:04:04;100328.56;;;18.47;100.00
65190;BME280;51777;53.570;9.984;2023-07-29T05:06:29;100326.56;;;18.49;100.00
65190;BME280;51777;53.570;9.984;2023-07-29T05:08:57;100322.91;;;18.51;100.00
65190;BME280;51777;53.570;9.984;2023-07-29T05:11:22;100326.56;;;18.49;100.00
65190;BME280;51777;53.570;9.984;2023-07-29T05:13:47;100332.59;;;18.50;100.00
65190;BME280;51777;53.570;9.984;2023-07-29T05:16:13;100331.31;;;18.59;100.00
65190;BME280;51777;53.570;9.984;2023-07-29T05:18:38;100319.03;;;18.73;100.00
65190;BME280;51777;53.570;9.984;2023-07-29T05:21:05;100323.56;;;18.91;100.00
65190;BME280;51777;53.570;9.984;2023-07-29T05:23:31;100325.31;;;19.03;100.00
65190;BME280;51777;53.570;9.984;2023-07-29T05:25:56;100331.34;;;19.04;100.00
65190;BME280;51777;53.570;9.984;2023-07-29T05:28:21;100330.47;;;18.78;100.00
65190;BME280;51777;53.570;9.984;2023-07-29T05:30:47;100326.69;;;18.74;100.00
65190;BME280;51777;53.570;9.984;2023-07-29T05:33:12;100321.53;;;18.93;100.00
65190;BME280;51777;53.570;9.984;2023-07-29T05:35:37;100333.88;;;19.17;100.00
65190;BME280;51777;53.570;9.984;2023-07-29T05:38:03;100329.22;;;19.19;100.00
65190;BME280;51777;53.570;9.984;2023-07-29T05:40:30;100333.13;;;19.10;100.00
65190;BME280;51777;53.570;9.984;2023-07-29T05:42:55;100326.59;;;19.19;100.00
65190;BME280;51777;53.570;9.984;2023-07-29T05:45:21;100328.72;;;19.35;100.00
65190;BME280;51777;53.570;9.984;2023-07-29T05:47:47;100331.41;;;19.54;100.00
65190;BME280;51777;53.570;9.984;2023-07-29T05:50:12;100328.91;;;19.65;100.00
65190;BME280;51777;53.570;9.984;2023-07-29T05:52:38;100329.03;;;19.77;100.00
65190;BME280;51777;53.570;9.984;2023-07-29T05:55:03;100331.31;;;19.67;100.00
65190;BME280;51777;53.570;9.984;2023-07-29T05:57:29;100326.72;;;19.62;100.00
65190;BME280;51777;53.570;9.984;2023-07-29T05:59:54;100323.13;;;19.57;100.00
65190;BME280;51777;53.570;9.984;2023-07-29T06:02:20;100327.56;;;19.56;100.00
65190;BME280;51777;53.570;9.984;2023-07-29T06:04:45;100320.34;;;19.52;100.00
65190;BME280;51777;53.570;9.984;2023-07-29T06:07:10;100329.09;;;19.39;100.00
65190;BME280;51777;53.570;9.984;2023-07-29T06:09:36;100327.19;;;19.21;100.00
65190;BME280;51777;53.570;9.984;2023-07-29T06:12:02;100325.72;;;19.32;100.00
65190;BME280;51777;53.570;9.984;2023-07-29T06:14:27;100321.56;;;19.49;100.00
65190;BME280;51777;53.570;9.984;2023-07-29T06:16:52;100314.84;;;19.60;100.00
65190;BME280;51777;53.570;9.984;2023-07-29T06:19:19;100326.19;;;19.79;100.00
65190;BME280;51777;53.570;9.984;2023-07-29T06:21:45;100323.50;;;19.85;100.00
65190;BME280;51777;53.570;9.984;2023-07-29T06:24:10;100318.84;;;19.87;100.00
65190;BME280;51777;53.570;9.984;2023-07-29T06:26:36;100318.84;;;19.87;100.00
65190;BME280;51777;53.570;9.984;2023-07-29T06:29:01;100322.09;;;19.83;100.00
65190;BME280;51777;53.570;9.984;2023-07-29T06:31:26;100317.16;;;19.93;100.00
65190;BME280;51777;53.570;9.984;2023-07-29T06:33:52;100307.03;;;19.97;100.00
65190;BME280;51777;53.570;9.984;2023-07-29T06:36:17;100305.56;;;20.19;100.00
65190;BME280;51777;53.570;9.984;2023-07-29T06:38:43;100303.25;;;20.29;100.00
65190;BME280;51777;53.570;9.984;2023-07-29T06:41:08;100301.06;;;20.44;100.00
65190;BME280;51777;53.570;9.984;2023-07-29T06:43:34;100297.88;;;20.42;100.00
65190;BME280;51777;53.570;9.984;2023-07-29T06:45:59;100305.75;;;20.42;100.00
65190;BME280;51777;53.570;9.984;2023-07-29T06:48:24;100310.72;;;20.50;100.00
65190;BME280;51777;53.570;9.984;2023-07-29T06:50:50;100302.81;;;20.50;100.00
65190;BME280;51777;53.570;9.984;2023-07-29T06:53:16;100304.09;;;20.41;100.00
65190;BME280;51777;53.570;9.984;2023-07-29T06:55:42;100314.31;;;20.31;100.00
65190;BME280;51777;53.570;9.984;2023-07-29T06:58:07;100313.41;;;20.26;100.00
65190;BME280;51777;53.570;9.984;2023-07-29T07:00:33;100310.59;;;20.20;100.00
65190;BME280;51777;53.570;9.984;2023-07-29T07:02:58;100318.25;;;20.04;100.00
65190;BME280;51777;53.570;9.984;2023-07-29T07:05:23;100325.84;;;19.93;100.00
65190;BME280;51777;53.570;9.984;2023-07-29T07:07:49;100320.59;;;19.93;100.00
65190;BME280;51777;53.570;9.984;2023-07-29T07:10:14;100323.66;;;19.90;100.00
65190;BME280;51777;53.570;9.984;2023-07-29T07:12:40;100327.72;;;19.86;100.00
65190;BME280;51777;53.570;9.984;2023-07-29T07:15:05;100327.66;;;19.93;100.00
65190;BME280;51777;53.570;9.984;2023-07-29T07:17:31;100325.25;;;19.91;100.00
65190;BME280;51777;53.570;9.984;2023-07-29T07:19:56;100334.09;;;19.97;100.00
65190;BME280;51777;53.570;9.984;2023-07-29T07:22:22;100336.91;;;19.95;100.00
65190;BME280;51777;53.570;9.984;2023-07-29T07:24:47;100329.66;;;19.98;100.00
65190;BME280;51777;53.570;9.984;2023-07-29T07:27:13;100327.03;;;19.98;100.00
65190;BME280;51777;53.570;9.984;2023-07-29T07:29:39;100323.22;;;19.93;100.00
65190;BME280;51777;53.570;9.984;2023-07-29T07:32:05;100318.53;;;19.95;100.00
65190;BME280;51777;53.570;9.984;2023-07-29T07:34:30;100320.75;;;19.99;100.00
65190;BME280;51777;53.570;9.984;2023-07-29T07:36:56;100318.50;;;20.02;100.00
65190;BME280;51777;53.570;9.984;2023-07-29T07:39:21;100315.28;;;20.00;100.00
65190;BME280;51777;53.570;9.984;2023-07-29T07:41:46;100317.69;;;20.02;100.00
65190;BME280;51777;53.570;9.984;2023-07-29T07:44:13;100314.19;;;20.08;100.00
65190;BME280;51777;53.570;9.984;2023-07-29T07:46:41;100312.28;;;20.15;100.00
65190;BME280;51777;53.570;9.984;2023-07-29T07:49:06;100315.66;;;20.22;100.00
65190;BME280;51777;53.570;9.984;2023-07-29T07:51:31;100317.63;;;20.27;100.00
65190;BME280;51777;53.570;9.984;2023-07-29T07:53:57;100324.19;;;20.17;100.00
65190;BME280;51777;53.570;9.984;2023-07-29T07:56:22;100315.78;;;20.09;100.00
65190;BME280;51777;53.570;9.984;2023-07-29T07:58:48;100320.53;;;20.00;100.00
65190;BME280;51777;53.570;9.984;2023-07-29T08:01:13;100316.09;;;20.01;100.00
65190;BME280;51777;53.570;9.984;2023-07-29T08:03:40;100321.97;;;19.96;100.00
65190;BME280;51777;53.570;9.984;2023-07-29T08:06:05;100320.38;;;19.95;100.00
65190;BME280;51777;53.570;9.984;2023-07-29T08:08:31;100314.41;;;19.88;100.00
65190;BME280;51777;53.570;9.984;2023-07-29T08:10:57;100307.78;;;20.04;100.00
65190;BME280;51777;53.570;9.984;2023-07-29T08:13:23;100302.72;;;20.20;100.00
65190;BME280;51777;53.570;9.984;2023-07-29T08:15:50;100306.03;;;20.16;100.00
65190;BME280;51777;53.570;9.984;2023-07-29T08:18:16;100315.91;;;19.95;100.00
65190;BME280;51777;53.570;9.984;2023-07-29T08:20:57;100317.50;;;19.97;100.00
65190;BME280;51777;53.570;9.984;2023-07-29T08:23:26;100307.84;;;19.97;100.00
65190;BME280;51777;53.570;9.984;2023-07-29T08:25:56;100321.59;;;19.92;100.00
65190;BME280;51777;53.570;9.984;2023-07-29T08:28:26;100309.88;;;19.95;100.00
65190;BME280;51777;53.570;9.984;2023-07-29T08:30:52;100309.00;;;20.01;100.00
65190;BME280;51777;53.570;9.984;2023-07-29T08:33:17;100314.63;;;20.05;100.00
65190;BME280;51777;53.570;9.984;2023-07-29T08:35:43;100320.75;;;19.99;100.00
65190;BME280;51777;53.570;9.984;2023-07-29T08:38:08;100329.22;;;20.01;100.00
65190;BME280;51777;53.570;9.984;2023-07-29T08:40:34;100319.38;;;20.14;100.00
65190;BME280;51777;53.570;9.984;2023-07-29T08:43:04;100327.78;;;20.23;100.00
65190;BME280;51777;53.570;9.984;2023-07-29T08:45:35;100334.81;;;20.04;100.00
65190;BME280;51777;53.570;9.984;2023-07-29T08:48:02;100325.56;;;20.02;100.00
65190;BME280;51777;53.570;9.984;2023-07-29T08:50:30;100332.84;;;20.00;100.00
65190;BME280;51777;53.570;9.984;2023-07-29T08:52:58;100327.38;;;20.01;100.00
65190;BME280;51777;53.570;9.984;2023-07-29T08:55:24;100332.09;;;19.92;100.00
65190;BME280;51777;53.570;9.984;2023-07-29T08:57:50;100336.56;;;19.92;100.00
65190;BME280;51777;53.570;9.984;2023-07-29T09:00:16;100338.63;;;19.83;100.00
65190;BME280;51777;53.570;9.984;2023-07-29T09:02:42;100330.81;;;20.02;100.00
65190;BME280;51777;53.570;9.984;2023-07-29T09:05:08;100339.56;;;20.14;100.00
65190;BME280;51777;53.570;9.984;2023-07-29T09:07:34;100331.63;;;20.39;100.00
65190;BME280;51777;53.570;9.984;2023-07-29T09:10:01;100334.09;;;20.70;100.00
65190;BME280;51777;53.570;9.984;2023-07-29T09:12:26;100328.97;;;21.05;100.00
65190;BME280;51777;53.570;9.984;2023-07-29T09:14:52;100321.09;;;21.47;100.00
65190;BME280;51777;53.570;9.984;2023-07-29T09:17:19;100316.41;;;21.49;100.00
65190;BME280;51777;53.570;9.984;2023-07-29T09:19:50;100317.09;;;21.68;100.00
65190;BME280;51777;53.570;9.984;2023-07-29T09:22:19;100322.47;;;21.85;100.00
65190;BME280;51777;53.570;9.984;2023-07-29T09:24:46;100320.66;;;21.97;100.00
65190;BME280;51777;53.570;9.984;2023-07-29T09:27:28;100320.44;;;22.10;100.00
65190;BME280;51777;53.570;9.984;2023-07-29T09:29:56;100323.28;;;22.20;100.00
65190;BME280;51777;53.570;9.984;2023-07-29T09:32:23;100323.50;;;22.59;100.00
65190;BME280;51777;53.570;9.984;2023-07-29T09:34:49;100319.06;;;22.88;100.00
65190;BME280;51777;53.570;9.984;2023-07-29T09:37:16;100314.63;;;23.22;100.00
65190;BME280;51777;53.570;9.984;2023-07-29T09:39:46;100313.81;;;23.89;100.00
65190;BME280;51777;53.570;9.984;2023-07-29T09:42:17;100315.03;;;24.42;100.00
65190;BME280;51777;53.570;9.984;2023-07-29T09:44:43;100322.31;;;25.69;100.00
65190;BME280;51777;53.570;9.984;2023-07-29T09:47:09;100327.06;;;27.43;100.00
65190;BME280;51777;53.570;9.984;2023-07-29T09:49:35;100337.69;;;27.48;100.00
65190;BME280;51777;53.570;9.984;2023-07-29T09:52:01;100342.13;;;29.42;100.00
65190;BME280;51777;53.570;9.984;2023-07-29T09:54:30;100339.56;;;29.90;100.00
65190;BME280;51777;53.570;9.984;2023-07-29T09:56:56;100325.44;;;28.97;100.00
65190;BME280;51777;53.570;9.984;2023-07-29T09:59:23;100344.47;;;30.25;100.00
65190;BME280;51777;53.570;9.984;2023-07-29T10:01:49;100341.28;;;30.85;100.00
65190;BME280;51777;53.570;9.984;2023-07-29T10:04:15;100346.19;;;30.40;100.00
65190;BME280;51777;53.570;9.984;2023-07-29T10:06:42;100348.19;;;31.23;100.00
65190;BME280;51777;53.570;9.984;2023-07-29T10:09:11;100340.47;;;29.17;100.00
65190;BME280;51777;53.570;9.984;2023-07-29T10:11:37;100342.63;;;30.02;100.00
65190;BME280;51777;53.570;9.984;2023-07-29T10:14:03;100349.34;;;29.70;100.00
65190;BME280;51777;53.570;9.984;2023-07-29T10:16:28;100343.63;;;30.49;100.00
65190;BME280;51777;53.570;9.984;2023-07-29T10:18:54;100350.25;;;29.85;100.00
65190;BME280;51777;53.570;9.984;2023-07-29T10:21:22;100345.22;;;28.91;100.00
65190;BME280;51777;53.570;9.984;2023-07-29T10:23:49;100345.84;;;28.67;100.00
65190;BME280;51777;53.570;9.984;2023-07-29T10:26:19;100331.31;;;27.65;100.00
65190;BME280;51777;53.570;9.984;2023-07-29T10:28:47;100332.72;;;26.39;100.00
65190;BME280;51777;53.570;9.984;2023-07-29T10:31:15;100324.13;;;26.11;100.00
65190;BME280;51777;53.570;9.984;2023-07-29T10:33:42;100326.97;;;25.57;100.00
65190;BME280;51777;53.570;9.984;2023-07-29T10:36:08;100320.91;;;24.98;100.00
65190;BME280;51777;53.570;9.984;2023-07-29T10:38:34;100313.19;;;24.42;100.00
65190;BME280;51777;53.570;9.984;2023-07-29T10:41:00;100311.28;;;23.77;100.00
65190;BME280;51777;53.570;9.984;2023-07-29T10:43:35;100307.69;;;23.50;100.00
65190;BME280;51777;53.570;9.984;2023-07-29T10:46:20;100310.13;;;23.56;100.00
65190;BME280;51777;53.570;9.984;2023-07-29T10:51:34;100296.66;;;24.30;100.00
65190;BME280;51777;53.570;9.984;2023-07-29T10:54:02;100306.28;;;24.41;100.00
65190;BME280;51777;53.570;9.984;2023-07-29T10:56:33;100310.09;;;24.50;100.00
65190;BME280;51777;53.570;9.984;2023-07-29T10:59:22;100301.09;;;23.86;100.00
65190;BME280;51777;53.570;9.984;2023-07-29T11:01:54;100291.22;;;23.26;100.00
65190;BME280;51777;53.570;9.984;2023-07-29T11:12:53;100290.31;;;23.03;100.00
65190;BME280;51777;53.570;9.984;2023-07-29T11:15:28;100290.31;;;22.87;100.00
65190;BME280;51777;53.570;9.984;2023-07-29T11:17:59;100293.50;;;23.05;100.00
65190;BME280;51777;53.570;9.984;2023-07-29T11:20:32;100297.66;;;23.01;100.00
65190;BME280;51777;53.570;9.984;2023-07-29T11:23:02;100294.16;;;23.29;100.00
65190;BME280;51777;53.570;9.984;2023-07-29T11:25:30;100295.44;;;23.10;100.00
65190;BME280;51777;53.570;9.984;2023-07-29T11:27:57;100292.97;;;22.75;100.00
65190;BME280;51777;53.570;9.984;2023-07-29T11:30:25;100293.81;;;22.92;100.00
65190;BME280;51777;53.570;9.984;2023-07-29T11:32:57;100291.13;;;22.75;100.00
65190;BME280;51777;53.570;9.984;2023-07-29T11:35:49;100290.88;;;24.33;100.00
65190;BME280;51777;53.570;9.984;2023-07-29T11:38:17;100299.69;;;25.20;100.00
65190;BME280;51777;53.570;9.984;2023-07-29T11:40:44;100303.69;;;26.07;100.00
65190;BME280;51777;53.570;9.984;2023-07-29T11:43:19;100310.09;;;27.29;100.00
65190;BME280;51777;53.570;9.984;2023-07-29T11:45:44;100308.47;;;27.03;100.00
65190;BME280;51777;53.570;9.984;2023-07-29T11:48:10;100309.56;;;27.32;100.00
65190;BME280;51777;53.570;9.984;2023-07-29T11:50:35;100309.00;;;27.50;100.00
65190;BME280;51777;53.570;9.984;2023-07-29T11:53:03;100314.34;;;27.10;100.00
65190;BME280;51777;53.570;9.984;2023-07-29T11:55:28;100306.09;;;27.42;100.00
65190;BME280;51777;53.570;9.984;2023-07-29T11:57:54;100317.81;;;28.41;100.00
65190;BME280;51777;53.570;9.984;2023-07-29T12:00:20;100318.09;;;28.24;100.00
65190;BME280;51777;53.570;9.984;2023-07-29T12:02:47;100310.34;;;27.23;100.00
65190;BME280;51777;53.570;9.984;2023-07-29T12:05:14;100307.97;;;27.31;100.00
65190;BME280;51777;53.570;9.984;2023-07-29T12:07:42;100312.19;;;27.58;100.00
65190;BME280;51777;53.570;9.984;2023-07-29T12:10:09;100310.59;;;27.72;100.00
65190;BME280;51777;53.570;9.984;2023-07-29T12:12:46;100317.25;;;27.34;100.00
65190;BME280;51777;53.570;9.984;2023-07-29T12:15:12;100308.69;;;26.71;100.00
65190;BME280;51777;53.570;9.984;2023-07-29T12:17:40;100319.09;;;27.38;100.00
65190;BME280;51777;53.570;9.984;2023-07-29T12:20:08;100313.66;;;28.09;100.00
65190;BME280;51777;53.570;9.984;2023-07-29T12:22:34;100325.31;;;29.12;100.00
65190;BME280;51777;53.570;9.984;2023-07-29T12:25:00;100327.41;;;29.55;100.00
65190;BME280;51777;53.570;9.984;2023-07-29T12:27:26;100323.50;;;30.19;100.00
65190;BME280;51777;53.570;9.984;2023-07-29T12:29:53;100324.63;;;30.13;100.00
65190;BME280;51777;53.570;9.984;2023-07-29T12:32:18;100312.63;;;29.04;100.00
65190;BME280;51777;53.570;9.984;2023-07-29T12:34:44;100306.22;;;29.34;100.00
65190;BME280;51777;53.570;9.984;2023-07-29T12:37:13;100314.88;;;29.21;100.00
65190;BME280;51777;53.570;9.984;2023-07-29T12:39:42;100316.47;;;28.88;100.00
65190;BME280;51777;53.570;9.984;2023-07-29T12:42:08;100310.34;;;28.87;100.00
65190;BME280;51777;53.570;9.984;2023-07-29T12:44:35;100319.31;;;29.65;100.00
65190;BME280;51777;53.570;9.984;2023-07-29T12:47:02;100329.84;;;30.65;100.00
65190;BME280;51777;53.570;9.984;2023-07-29T12:49:29;100328.41;;;31.24;100.00
65190;BME280;51777;53.570;9.984;2023-07-29T12:51:59;100311.25;;;30.36;100.00
65190;BME280;51777;53.570;9.984;2023-07-29T12:54:24;100320.63;;;30.15;100.00